Celebrity Century — 9HJI9 — position and weather

sailwx.info

Track history (hours):
 
Tides and Currents Weather Stations Pressure Air Temp Water Temp Dewpoint Dewpoint Depression Visibility Wind Speed Wind Dir Waves Ship Positions

Celebrity Century

Last reported at 2017-Dec-11 17:00 UTC. Time now 2017-Dec-13 03:38 UTC.
Position N 25°08' E 123°15'.

Length 251 m; draft 8 m.

Type: Passenger vessel. MMSI: 249054000.

Date/timePositionNaut miles runAvg speedWind from/ knotsBaromVisibWave heightAir tempDewpointWater temp
2017-Dec-11 17:00N 25°08' E 123°15'1019.1
2017-Dec-11 16:31N 25°06' E 123°25'1019.0
2017-Dec-11 16:00N 25°05' E 123°36'918.6
2017-Dec-11 15:30N 25°05' E 123°46'24 1.1
2017-Dec-10 17:33N 25°07' E 123°20'115.9
2017-Dec-10 17:30N 25°08' E 123°19'816.0
2017-Dec-10 17:00N 25°08' E 123°10'816.4
2017-Dec-10 16:30N 25°09' E 123°01'815.9
2017-Dec-10 16:00N 25°10' E 122°53'815.7
2017-Dec-10 15:30N 25°11' E 122°44'815.7
2017-Dec-10 15:00N 25°12' E 122°35'815.4
2017-Dec-10 14:30N 25°12' E 122°27'816.3
2017-Dec-10 14:00N 25°13' E 122°18'916.2
2017-Dec-10 13:29N 25°16' E 122°09'816.1
2017-Dec-10 12:59N 25°19' E 122°01'816.2
2017-Dec-10 12:30N 25°21' E 121°53'816.7
2017-Dec-10 12:00N 25°24' E 121°44'917.5
2017-Dec-10 11:31N 25°24' E 121°34'1019.0
2017-Dec-10 11:01N 25°23' E 121°24'1018.9
2017-Dec-10 10:30N 25°20' E 121°14'1019.2
2017-Dec-10 10:00N 25°16' E 121°04'1019.2
2017-Dec-10 09:30N 25°13' E 120°54'918.9
2017-Dec-10 09:00N 25°08' E 120°45'1518.5
2017-Dec-10 08:12N 24°60' E 120°31'1318.0
2017-Dec-10 07:30N 24°51' E 120°21'4918.6
2017-Dec-10 04:51N 24°24' E 119°36'1420.1
2017-Dec-10 04:10N 24°16' E 119°24'320.2
2017-Dec-10 04:00N 24°14' E 119°21'4519.8
2017-Dec-10 01:43N 23°47' E 118°41'819.5
2017-Dec-10 01:18N 23°43' E 118°33'1019.1
2017-Dec-10 00:48N 23°37' E 118°25'618.9
2017-Dec-10 00:30N 23°34' E 118°20'  
2017-Dec-06 23:54N 16°23' E 108°00'811.7
2017-Dec-06 23:14N 16°28' E 108°06'1112.7
2017-Dec-06 22:24N 16°35' E 108°14'1212.8
2017-Dec-06 21:28N 16°43' E 108°23'  
2017-Dec-04 01:41N 24°53' E 120°21'819.6
2017-Dec-04 01:18N 24°57' E 120°28'1919.9
2017-Dec-04 00:20N 25°08' E 120°45'720.3
2017-Dec-04 00:00N 25°12' E 120°52'1020.7
2017-Dec-03 23:30N 25°16' E 121°02'1120.9
2017-Dec-03 23:00N 25°19' E 121°13'1020.9
2017-Dec-03 22:30N 25°22' E 121°24'1020.5
2017-Dec-03 22:00N 25°23' E 121°35'1019.2
2017-Dec-03 21:30N 25°21' E 121°46'1019.2
2017-Dec-03 21:00N 25°20' E 121°56'1019.6
2017-Dec-03 20:30N 25°17' E 122°07'918.9
2017-Dec-03 20:00N 25°15' E 122°17'1218.3
2017-Dec-03 19:20N 25°12' E 122°30'618.1
2017-Dec-03 19:01N 25°11' E 122°37'917.7
2017-Dec-03 18:30N 25°11' E 122°46'917.5
2017-Dec-03 18:00N 25°10' E 122°56'917.7
2017-Dec-03 17:30N 25°09' E 123°06'917.9
2017-Dec-03 17:00N 25°08' E 123°15'918.1
2017-Dec-03 16:30N 25°07' E 123°25'1018.9
2017-Dec-03 16:00N 25°06' E 123°36'1018.9
2017-Dec-03 15:30N 25°05' E 123°46'22 1.1
2017-Dec-02 19:44N 25°07' E 123°22'417.2
2017-Dec-02 19:30N 25°08' E 123°18'917.8
2017-Dec-02 19:00N 25°09' E 123°08'917.9
2017-Dec-02 18:30N 25°09' E 122°58'917.7
2017-Dec-02 18:00N 25°10' E 122°48'918.0
2017-Dec-02 17:30N 25°11' E 122°38'917.6
2017-Dec-02 17:00N 25°12' E 122°29'917.4
2017-Dec-02 16:30N 25°14' E 122°19'1118.0
2017-Dec-02 15:55N 25°17' E 122°08'918.3
2017-Dec-02 15:24N 25°19' E 121°58'718.0
2017-Dec-02 15:01N 25°21' E 121°50'917.6
2017-Dec-02 14:30N 25°23' E 121°41'917.5
2017-Dec-02 14:00N 25°23' E 121°31'917.6
2017-Dec-02 13:30N 25°20' E 121°22'917.3
2017-Dec-02 13:00N 25°17' E 121°13'917.2
2017-Dec-02 12:30N 25°15' E 121°04'816.8
2017-Dec-02 12:00N 25°12' E 120°55'816.2
2017-Dec-02 11:29N 25°09' E 120°46'1016.2
2017-Dec-02 10:52N 25°03' E 120°37'616.4
2017-Dec-02 10:30N 24°60' E 120°32'  
Track history (hours):
 
Tides and Currents Weather Stations Pressure Air Temp Water Temp Dewpoint Dewpoint Depression Visibility Wind Speed Wind Dir Waves Ship Positions

Celebrity Century

Last reported at 2017-Dec-11 17:00 UTC. Time now 2017-Dec-13 03:38 UTC.
Position N 25°08' E 123°15'.

Length 251 m; draft 8 m.

Type: Passenger vessel. MMSI: 249054000.

Date/timePositionNaut miles runAvg speedWind from/ knotsBaromVisibWave heightAir tempDewpointWater temp
2017-Dec-11 17:00N 25°08' E 123°15'1019.1
2017-Dec-11 16:31N 25°06' E 123°25'1019.0
2017-Dec-11 16:00N 25°05' E 123°36'918.6
2017-Dec-11 15:30N 25°05' E 123°46'24 1.1
2017-Dec-10 17:33N 25°07' E 123°20'115.9
2017-Dec-10 17:30N 25°08' E 123°19'816.0
2017-Dec-10 17:00N 25°08' E 123°10'816.4
2017-Dec-10 16:30N 25°09' E 123°01'815.9
2017-Dec-10 16:00N 25°10' E 122°53'815.7
2017-Dec-10 15:30N 25°11' E 122°44'815.7
2017-Dec-10 15:00N 25°12' E 122°35'815.4
2017-Dec-10 14:30N 25°12' E 122°27'816.3
2017-Dec-10 14:00N 25°13' E 122°18'916.2
2017-Dec-10 13:29N 25°16' E 122°09'816.1
2017-Dec-10 12:59N 25°19' E 122°01'816.2
2017-Dec-10 12:30N 25°21' E 121°53'816.7
2017-Dec-10 12:00N 25°24' E 121°44'917.5
2017-Dec-10 11:31N 25°24' E 121°34'1019.0
2017-Dec-10 11:01N 25°23' E 121°24'1018.9
2017-Dec-10 10:30N 25°20' E 121°14'1019.2
2017-Dec-10 10:00N 25°16' E 121°04'1019.2
2017-Dec-10 09:30N 25°13' E 120°54'918.9
2017-Dec-10 09:00N 25°08' E 120°45'1518.5
2017-Dec-10 08:12N 24°60' E 120°31'1318.0
2017-Dec-10 07:30N 24°51' E 120°21'4918.6
2017-Dec-10 04:51N 24°24' E 119°36'1420.1
2017-Dec-10 04:10N 24°16' E 119°24'320.2
2017-Dec-10 04:00N 24°14' E 119°21'4519.8
2017-Dec-10 01:43N 23°47' E 118°41'819.5
2017-Dec-10 01:18N 23°43' E 118°33'1019.1
2017-Dec-10 00:48N 23°37' E 118°25'618.9
2017-Dec-10 00:30N 23°34' E 118°20'  
2017-Dec-06 23:54N 16°23' E 108°00'811.7
2017-Dec-06 23:14N 16°28' E 108°06'1112.7
2017-Dec-06 22:24N 16°35' E 108°14'1212.8
2017-Dec-06 21:28N 16°43' E 108°23'  
2017-Dec-04 01:41N 24°53' E 120°21'819.6
2017-Dec-04 01:18N 24°57' E 120°28'1919.9
2017-Dec-04 00:20N 25°08' E 120°45'720.3
2017-Dec-04 00:00N 25°12' E 120°52'1020.7
2017-Dec-03 23:30N 25°16' E 121°02'1120.9
2017-Dec-03 23:00N 25°19' E 121°13'1020.9
2017-Dec-03 22:30N 25°22' E 121°24'1020.5
2017-Dec-03 22:00N 25°23' E 121°35'1019.2
2017-Dec-03 21:30N 25°21' E 121°46'1019.2
2017-Dec-03 21:00N 25°20' E 121°56'1019.6
2017-Dec-03 20:30N 25°17' E 122°07'918.9
2017-Dec-03 20:00N 25°15' E 122°17'1218.3
2017-Dec-03 19:20N 25°12' E 122°30'618.1
2017-Dec-03 19:01N 25°11' E 122°37'917.7
2017-Dec-03 18:30N 25°11' E 122°46'917.5
2017-Dec-03 18:00N 25°10' E 122°56'917.7
2017-Dec-03 17:30N 25°09' E 123°06'917.9
2017-Dec-03 17:00N 25°08' E 123°15'918.1
2017-Dec-03 16:30N 25°07' E 123°25'1018.9
2017-Dec-03 16:00N 25°06' E 123°36'1018.9
2017-Dec-03 15:30N 25°05' E 123°46'22 1.1
2017-Dec-02 19:44N 25°07' E 123°22'417.2
2017-Dec-02 19:30N 25°08' E 123°18'917.8
2017-Dec-02 19:00N 25°09' E 123°08'917.9
2017-Dec-02 18:30N 25°09' E 122°58'917.7
2017-Dec-02 18:00N 25°10' E 122°48'918.0
2017-Dec-02 17:30N 25°11' E 122°38'917.6
2017-Dec-02 17:00N 25°12' E 122°29'917.4
2017-Dec-02 16:30N 25°14' E 122°19'1118.0
2017-Dec-02 15:55N 25°17' E 122°08'918.3
2017-Dec-02 15:24N 25°19' E 121°58'718.0
2017-Dec-02 15:01N 25°21' E 121°50'917.6
2017-Dec-02 14:30N 25°23' E 121°41'917.5
2017-Dec-02 14:00N 25°23' E 121°31'917.6
2017-Dec-02 13:30N 25°20' E 121°22'917.3
2017-Dec-02 13:00N 25°17' E 121°13'917.2
2017-Dec-02 12:30N 25°15' E 121°04'816.8
2017-Dec-02 12:00N 25°12' E 120°55'816.2
2017-Dec-02 11:29N 25°09' E 120°46'1016.2
2017-Dec-02 10:52N 25°03' E 120°37'616.4
2017-Dec-02 10:30N 24°60' E 120°32'  

Dump ship's entire track history